Terminal Aerodrome Forecast
Issued by NWS Mt. Holly, NJ

Home | Current Version | Previous Version | Text Only | Print | Product List | Glossary On
Versions: 1 2 3 4 5 6 7 8 9 10 11 12 13 14 15 16 17
946
FTUS41 KPHI 231840 AAA
TAFABE
TAF AMD
KABE 231840Z 2319/2418 24010KT P6SM BKN035
     FM232000 23010KT P6SM VCSH OVC045
      TEMPO 2321/2401 4SM -TSRA OVC025CB
     FM240300 23007KT P6SM OVC035 WS020/23035KT
     FM240700 22005KT 4SM -TSRA BKN015CB
     FM241000 30006KT P6SM SCT015=

USA.gov is the U.S. government's official web portal to all federal, state and local government web resources and services.